CSY5 weather

Valleyfield (Ciment Deval Inc) Heliport
Valleyfield, Quebec, Canada

Public forecast

Using degrees Celsius for public forecast. Weather courtesy of forecast.io.

METAR (pilot weather report)

Closest report is Montreal / Pierre Elliott Trudeau International Airport, 21.2 nm (39.3 km) NE. Retrieved 2019/05/21 16:00 UTC (17 minutes ago):

CYUL 211600Z 30021G31KT 30SM FEW040 SCT060 BKN075 13/03 A2984 RMK CU1SC2AC2 SLP108

TAF (pilot weather forecast)

Closest forecast is Montreal / Pierre Elliott Trudeau International Airport, 21.2 nm (39.3 km) NE. Retrieved 2019/05/21 15:42 UTC (35 minutes ago):

TAF CYUL 211438Z 2115/2212 29018G30KT P6SM BKN030 TEMPO 2115/2118 P6SM -SHRA FM211800 31020G32KT P6SM BKN050 BECMG 2122/2124 32012G22KT FM220300 32008KT P6SM SCT060 FM220800 35006KT P6SM SKC RMK NXT FCST BY 211800Z